Stations météo

réclame
Mon MeteoGroup
East malling, Grande-Bretagne (99008): Température de l'air & dewpoint: 30.06.2020 14:00:00 - 06.07.2020 14:00:00 (BST)East malling, Grande-Bretagne (99008): Température de l'air -20cm: 30.06.2020 14:00:00 - 06.07.2020 14:00:00 (BST)East malling, Grande-Bretagne (99008): Vitesse du vent & gusts: 30.06.2020 14:00:00 - 06.07.2020 14:00:00 (BST)East malling, Grande-Bretagne (99008): Direction du vent: 30.06.2020 14:00:00 - 06.07.2020 14:00:00 (BST)East malling, Grande-Bretagne (99008): reduced air pressure: 30.06.2020 14:00:00 - 06.07.2020 14:00:00 (BST)East malling, Grande-Bretagne (99008): Ensoleillement: 30.06.2020 14:00:00 - 06.07.2020 14:00:00 (BST)East malling, Grande-Bretagne (99008): Quantités de précipitations: 30.06.2020 14:00:00 - 06.07.2020 14:00:00 (BST)
Date & Time tt [°C] td [°C] tt -20cm [°C] ff [km/h] ff [knt] fx [km/h] fx [knt] dd ppp [hPa] sd [min] rr [mm]
06.07.2020 14:00:00 - - - - - - - - - - -
06.07.2020 13:00:00 17,2 7,4 - 18 10 - - WNW 1020,1 6 0,0
06.07.2020 12:00:00 18,1 8,2 - 18 10 - - W 1019,3 18 0,0
06.07.2020 11:00:00 16,5 6,9 - 18 10 - - W 1018,9 18 0,0
06.07.2020 10:00:00 17,1 8,1 18,0 21 11 - - WNW 1018,3 36 0,0
06.07.2020 09:00:00 15,4 8,0 - 21 11 - - NW 1018,1 48 0,0
06.07.2020 08:00:00 13,8 8,0 - 18 10 - - WNW 1017,4 42 0,0
06.07.2020 07:00:00 12,8 8,9 - 13 7 - - W 1016,7 54 0,0
06.07.2020 06:00:00 11,4 8,5 - 15 8 - - WSW 1016,3 0 0,0
06.07.2020 05:00:00 11,2 8,1 - 13 7 - - WSW 1015,8 0 0,0
06.07.2020 04:00:00 11,4 8,0 - 11 6 - - WSW 1015,4 0 0,0
06.07.2020 03:00:00 12,1 7,8 - 11 6 - - WSW 1015,1 0 0,0
06.07.2020 02:00:00 12,6 7,7 - 15 8 - - W 1015,0 0 0,0
06.07.2020 01:00:00 13,3 7,3 - 16 9 - - W 1014,8 - 0,0
06.07.2020 00:00:00 13,9 6,9 - 21 11 46 25 W 1014,4 0 0,0
05.07.2020 23:00:00 14,7 6,5 - 21 11 - - W 1013,9 0 0,0
05.07.2020 22:00:00 15,5 6,0 - 22 12 - - W 1013,7 0 0,0
05.07.2020 21:00:00 16,6 6,3 - 18 10 - - W 1013,0 0 0,0
05.07.2020 20:00:00 18,3 6,7 - 22 12 46 25 W 1012,5 42 0,0
05.07.2020 19:00:00 19,1 6,7 - 26 14 - - W 1012,0 54 0,0
05.07.2020 18:00:00 19,6 6,4 - 24 13 50 27 W 1011,9 54 0,0
05.07.2020 17:00:00 21,2 7,0 - 24 13 48 26 W 1011,5 54 0,0
05.07.2020 16:00:00 21,6 8,4 - 28 15 - - W 1011,2 54 0,0
05.07.2020 15:00:00 21,9 8,5 - 29 16 48 26 W 1011,1 60 0,0
05.07.2020 14:00:00 22,1 9,6 - 24 13 46 25 WSW 1010,8 60 0,0
05.07.2020 13:00:00 21,6 8,7 - 26 14 46 25 W 1010,9 54 0,0
05.07.2020 12:00:00 21,3 11,9 - 26 14 - - W 1010,4 42 0,0
05.07.2020 11:00:00 21,1 12,9 - 24 13 50 27 W 1010,1 54 0,0
05.07.2020 10:00:00 19,8 14,3 18,0 26 14 - - WSW 1010,0 30 0,0
05.07.2020 09:00:00 18,1 14,6 - 22 12 - - WSW 1010,1 0 0,0
05.07.2020 08:00:00 16,8 15,1 - 21 11 - - WSW 1009,7 0 0,0
05.07.2020 07:00:00 16,8 14,6 - 28 15 46 25 WSW 1009,3 0 0,0
05.07.2020 06:00:00 16,4 14,7 - 26 14 50 27 WSW 1009,2 0 0,0
05.07.2020 05:00:00 16,4 14,9 - 21 11 46 25 SW 1008,9 0 0,0
05.07.2020 04:00:00 15,9 14,6 - 26 14 - - SW 1009,2 0 0,0
05.07.2020 03:00:00 16,2 14,4 - 22 12 - - SW 1009,8 0 0,0
05.07.2020 02:00:00 16,2 14,1 - 28 15 52 28 SW 1009,9 0 0,0
05.07.2020 01:00:00 16,5 14,2 - 26 14 46 25 WSW 1010,7 - 0,0
05.07.2020 00:00:00 16,8 14,9 - 18 10 - - SW 1010,8 0 0,0
04.07.2020 23:00:00 16,8 15,1 - 15 8 - - SW 1011,3 0 0,0
04.07.2020 22:00:00 17,0 15,2 - 15 8 - - SW 1011,3 0 0,0
04.07.2020 21:00:00 17,2 15,1 - 16 9 - - SW 1011,1 0 0,0
04.07.2020 20:00:00 17,4 15,2 - 21 11 - - WSW 1010,9 0 0,0
04.07.2020 19:00:00 17,5 15,4 - 21 11 - - SW 1010,8 0 0,0
04.07.2020 18:00:00 17,7 15,4 - 21 11 - - SW 1011,1 0 0,0
04.07.2020 17:00:00 18,4 15,6 - 24 13 46 25 WSW 1011,2 0 0,0
04.07.2020 16:00:00 19,6 15,9 - 24 13 52 28 SW 1011,1 6 0,0
04.07.2020 15:00:00 19,0 15,5 - 24 13 55 30 WSW 1011,3 0 0,0
04.07.2020 14:00:00 19,1 15,7 - 28 15 52 28 WSW 1011,3 0 0,0
04.07.2020 13:00:00 18,4 15,4 - 24 13 48 26 WSW 1011,6 0 0,0
04.07.2020 12:00:00 18,4 15,9 - 24 13 - - SW 1011,3 0 0,0
04.07.2020 11:00:00 18,0 15,6 - 24 13 - - WSW 1011,3 0 0,0
04.07.2020 10:00:00 17,3 15,8 18,0 22 12 - - SW 1011,3 0 0,0
04.07.2020 09:00:00 16,6 15,5 - 18 10 - - SW 1011,5 0 0,2
04.07.2020 08:00:00 16,0 15,1 - 21 11 - - SW 1011,7 0 0,0
04.07.2020 07:00:00 15,9 14,5 - 22 12 46 25 SW 1011,8 0 0,0
04.07.2020 06:00:00 15,5 14,2 - 22 12 - - SW 1011,9 0 0,0
04.07.2020 05:00:00 15,1 14,0 - 22 12 - - SW 1012,4 0 0,2
04.07.2020 04:00:00 15,3 13,6 - 22 12 46 25 SW 1012,9 0 0,0
04.07.2020 03:00:00 15,1 13,4 - 24 13 50 27 SW 1013,3 0 0,0
04.07.2020 02:00:00 15,1 13,2 - 21 11 46 25 SW 1013,7 0 0,0
04.07.2020 01:00:00 15,4 12,6 - 21 11 - - SW 1014,0 - 0,0
04.07.2020 00:00:00 15,0 12,4 - 16 9 - - SW 1014,5 0 0,0
03.07.2020 23:00:00 14,4 12,2 - 18 10 - - SW 1015,0 0 0,2
03.07.2020 22:00:00 14,6 11,8 - 16 9 - - SW 1015,2 0 0,0
03.07.2020 21:00:00 15,6 10,8 - 18 10 - - SW 1015,3 0 0,0
03.07.2020 20:00:00 16,5 10,2 - 26 14 48 26 WSW 1015,5 0 0,0
03.07.2020 19:00:00 17,5 9,7 - 24 13 52 28 WSW 1015,5 18 0,0
03.07.2020 18:00:00 18,4 11,1 - 24 13 48 26 SW 1015,3 42 0,0
03.07.2020 17:00:00 18,0 10,6 - 26 14 54 29 WSW 1016,0 12 0,0
03.07.2020 16:00:00 18,9 10,9 - 24 13 52 28 WSW 1016,0 36 0,0
03.07.2020 15:00:00 19,1 10,6 - 26 14 - - WSW 1016,2 42 0,0
03.07.2020 14:00:00 19,5 10,6 - 24 13 48 26 WSW 1016,1 60 0,0
03.07.2020 13:00:00 20,0 10,9 - 22 12 46 25 WSW 1016,5 54 0,0
03.07.2020 12:00:00 18,9 10,4 - 21 11 - - WSW 1016,9 36 0,0
03.07.2020 11:00:00 17,2 10,3 - 16 9 - - WSW 1017,1 30 0,0
03.07.2020 10:00:00 16,8 11,0 18,0 16 9 - - W 1017,2 42 0,0
03.07.2020 09:00:00 15,2 10,8 - 11 6 - - WSW 1017,2 12 0,0
03.07.2020 08:00:00 14,2 11,7 - 13 7 - - W 1017,1 60 0,0
03.07.2020 07:00:00 12,7 11,5 - 11 6 - - WSW 1017,2 18 0,0
03.07.2020 06:00:00 11,8 11,1 - 8 4 - - WSW 1017,1 0 0,0
03.07.2020 05:00:00 11,9 11,5 - 5 3 - - SW 1016,6 0 0,0
03.07.2020 04:00:00 12,0 11,3 - 4 2 - - WSW 1016,3 0 0,0
03.07.2020 03:00:00 13,6 13,0 - 8 4 - - WSW 1016,0 0 0,0
03.07.2020 02:00:00 14,4 14,0 - 0 0 - - N 1015,8 0 0,0
03.07.2020 01:00:00 14,1 13,6 - 4 2 - - SW 1015,7 - 0,0
03.07.2020 00:00:00 14,4 13,7 - 2 1 - - E 1015,6 0 0,0
02.07.2020 23:00:00 14,9 14,2 - 9 5 - - SW 1015,4 0 0,0
02.07.2020 22:00:00 15,3 14,3 - 4 2 - - WSW 1015,1 0 0,8
02.07.2020 21:00:00 15,7 14,7 - 4 2 - - WNW 1014,6 6 0,0
02.07.2020 20:00:00 15,7 14,6 - 5 3 - - SW 1014,0 0 3,0
02.07.2020 19:00:00 19,0 13,1 - 15 8 - - WSW 1013,1 36 0,0
02.07.2020 18:00:00 19,4 12,5 - 18 10 - - SW 1012,6 30 0,0
02.07.2020 17:00:00 19,8 12,1 - 18 10 - - W 1012,3 36 0,0
02.07.2020 16:00:00 20,0 11,4 - 21 11 - - W 1012,0 18 0,0
02.07.2020 15:00:00 18,7 11,6 - 15 8 - - W 1011,8 18 0,0
02.07.2020 14:00:00 18,4 11,0 - 16 9 - - W 1011,4 18 0,0
02.07.2020 13:00:00 17,8 11,9 - 13 7 - - WNW 1011,3 0 0,0
02.07.2020 12:00:00 18,0 11,2 - 15 8 - - W 1011,0 0 0,0
02.07.2020 11:00:00 17,9 10,9 - 16 9 - - W 1010,5 12 0,0
02.07.2020 10:00:00 17,2 10,5 18,0 18 10 - - W 1010,4 54 0,0
02.07.2020 09:00:00 16,5 10,7 - 21 11 - - WSW 1010,2 60 0,0
02.07.2020 08:00:00 14,7 11,1 - 15 8 - - WSW 1010,0 48 0,0
02.07.2020 07:00:00 13,3 10,7 - 11 6 - - WSW 1009,8 12 0,0
02.07.2020 06:00:00 12,4 10,1 - 9 5 - - SW 1009,6 0 0,0
02.07.2020 05:00:00 12,5 9,9 - 8 4 - - WSW 1009,4 0 0,0
02.07.2020 04:00:00 13,8 10,1 - 8 4 - - WSW 1009,2 0 0,0
02.07.2020 03:00:00 14,8 11,2 - 9 5 - - W 1009,0 0 0,0
02.07.2020 02:00:00 14,8 13,2 - 9 5 - - WSW 1008,7 0 0,0
02.07.2020 01:00:00 14,6 13,3 - 8 4 - - SW 1008,5 - 0,0
02.07.2020 00:00:00 14,7 13,1 - 5 3 - - SW 1008,5 0 0,0
01.07.2020 23:00:00 15,7 13,2 - 9 5 - - SW 1008,3 0 0,0
01.07.2020 22:00:00 16,5 13,4 - 8 4 - - WSW 1008,1 0 0,0
01.07.2020 21:00:00 17,1 13,0 - 11 6 - - SW 1007,5 0 0,0
01.07.2020 20:00:00 17,4 14,2 - 5 3 - - W 1007,3 0 0,0
01.07.2020 19:00:00 17,1 14,2 - 5 3 - - WNW 1007,2 0 0,0
01.07.2020 18:00:00 18,8 12,7 - 18 10 - - WSW 1006,9 0 0,0
01.07.2020 17:00:00 19,5 13,2 - 15 8 - - SW 1006,5 6 0,0
01.07.2020 16:00:00 21,1 14,0 - 18 10 - - SW 1006,1 12 0,0
01.07.2020 15:00:00 20,1 13,0 - 21 11 - - SW 1006,0 24 0,0
01.07.2020 14:00:00 20,3 12,8 - 18 10 - - SW 1005,8 6 0,0
01.07.2020 13:00:00 19,6 11,8 - 18 10 - - WSW 1005,7 0 0,0
01.07.2020 12:00:00 19,9 11,9 - 18 10 - - WSW 1005,4 30 0,0
01.07.2020 11:00:00 19,1 11,3 - 18 10 - - WSW 1005,4 54 0,0
01.07.2020 10:00:00 18,5 12,5 17,9 18 10 - - WSW 1005,4 54 0,0
01.07.2020 09:00:00 16,8 12,0 - 18 10 - - WSW 1005,4 48 0,0
01.07.2020 08:00:00 16,2 12,8 - 21 11 - - WSW 1005,1 48 0,0
01.07.2020 07:00:00 14,8 13,3 - 11 6 - - SW 1005,0 36 0,0
01.07.2020 06:00:00 13,5 13,1 - 5 3 - - SW 1004,9 18 0,0
01.07.2020 05:00:00 12,8 12,0 - 5 3 - - SSW 1004,7 0 0,0
01.07.2020 04:00:00 13,7 12,1 - 8 4 - - SW 1004,9 0 0,0
01.07.2020 03:00:00 15,2 12,4 - 15 8 - - WSW 1005,0 0 0,0
01.07.2020 02:00:00 15,9 14,2 - 15 8 - - SW 1005,2 0 0,0
01.07.2020 01:00:00 16,2 14,6 - 11 6 - - SW 1005,9 - 0,0
01.07.2020 00:00:00 16,3 15,0 - 13 7 - - SW 1006,1 0 0,0
30.06.2020 23:00:00 16,3 15,1 - 9 5 - - SW 1006,2 0 0,0
30.06.2020 22:00:00 16,3 15,3 - 11 6 - - SW 1006,4 0 0,0
30.06.2020 21:00:00 16,5 15,6 - 11 6 - - SW 1006,3 0 0,0
30.06.2020 20:00:00 16,6 15,7 - 15 8 - - SW 1006,3 0 0,2
30.06.2020 19:00:00 16,6 15,9 - 13 7 - - SW 1006,3 0 0,2
30.06.2020 18:00:00 16,7 15,8 - 13 7 - - SW 1006,4 0 0,2
30.06.2020 17:00:00 16,8 15,3 - 18 10 - - SW 1006,9 0 0,0
30.06.2020 16:00:00 16,5 15,2 - 13 7 - - SW 1007,2 0 0,0
30.06.2020 15:00:00 16,3 15,3 - 21 11 - - SW 1007,3 0 0,2
30.06.2020 14:00:00 17,0 14,9 - 21 11 - - SW 1007,0 0 0,4

tt = Température de l'air
td = dewpoint
tt -20cm = Température de l'air -20cm
ff = Vitesse du vent
fx = gusts
dd = Direction du vent
ppp = reduced air pressure
sd = Ensoleillement
rr = Quantités de précipitations

stations d'obs. à proximité